Time;durP1;ratioP1;P1;durP2;ratioP2;P2;SDS_P1;SDS_P2;PMS_P1;PMS_P2;Temp;Humidity;BMP_temperature;BMP_pressure;BME280_temperature;BME280_humidity;BME280_pressure;Samples;Min_cycle;Max_cycle;Signal;HPM_P1;HPM_P2
2023/03/07 00:01:05;;;;;;;10.70;9.60;;;3.50;99.90;;;;;;6044806;23;20241;-64
2023/03/07 00:03:32;;;;;;;9.82;8.82;;;3.60;99.90;;;;;;6050301;23;20241;-64
2023/03/07 00:06:04;;;;;;;11.80;9.80;;;3.50;99.90;;;;;;6058251;23;20203;-65
2023/03/07 00:08:31;;;;;;;12.75;9.10;;;3.50;99.90;;;;;;6052447;23;20220;-65
2023/03/07 00:11:01;;;;;;;12.70;10.52;;;3.50;99.90;;;;;;6053729;23;21325;-65
2023/03/07 00:13:30;;;;;;;11.43;9.30;;;3.50;99.90;;;;;;6054458;23;20818;-65
2023/03/07 00:16:02;;;;;;;12.15;9.75;;;3.50;99.90;;;;;;6059199;23;20287;-65
2023/03/07 00:18:29;;;;;;;12.23;9.82;;;3.50;99.90;;;;;;6053231;23;20247;-65
2023/03/07 00:20:58;;;;;;;13.98;10.65;;;3.50;99.90;;;;;;6056963;23;20318;-65
2023/03/07 00:23:25;;;;;;;10.85;9.60;;;3.50;99.90;;;;;;6055869;23;20209;-65
2023/03/07 00:25:57;;;;;;;14.10;10.52;;;3.50;99.90;;;;;;6057650;23;20271;-64
2023/03/07 00:28:25;;;;;;;10.93;8.95;;;3.50;99.90;;;;;;6049283;23;20719;-65
2023/03/07 00:30:52;;;;;;;12.07;10.23;;;3.50;99.90;;;;;;6051429;23;20196;-65
2023/03/07 00:33:20;;;;;;;10.85;9.40;;;3.50;99.90;;;;;;6059635;23;20726;-65
2023/03/07 00:35:55;;;;;;;11.13;9.63;;;3.50;99.90;;;;;;6053098;23;20323;-65
2023/03/07 00:38:22;;;;;;;11.65;10.25;;;3.50;99.90;;;;;;6049220;23;20544;-64
2023/03/07 00:40:56;;;;;;;10.98;9.02;;;3.50;99.90;;;;;;6054314;23;20189;-65
2023/03/07 00:43:24;;;;;;;12.48;10.48;;;3.50;99.90;;;;;;6058678;23;20222;-65
2023/03/07 00:45:51;;;;;;;12.60;9.95;;;3.50;99.90;;;;;;6055213;23;20227;-64
2023/03/07 00:48:19;;;;;;;11.43;9.15;;;3.50;99.90;;;;;;6057592;23;20723;-65
2023/03/07 00:50:46;;;;;;;10.73;9.40;;;3.50;99.90;;;;;;6047909;23;20545;-64
2023/03/07 00:53:14;;;;;;;10.70;9.60;;;3.50;99.90;;;;;;6048702;23;20648;-65
2023/03/07 00:55:41;;;;;;;11.25;9.57;;;3.60;99.90;;;;;;6056221;23;20213;-65
2023/03/07 00:58:08;;;;;;;11.15;9.00;;;3.60;99.90;;;;;;6056202;23;20659;-65
2023/03/07 01:00:35;;;;;;;12.48;9.75;;;3.50;99.90;;;;;;6047249;23;20189;-65
2023/03/07 01:03:03;;;;;;;10.77;8.95;;;3.50;99.90;;;;;;6058536;23;20207;-65
2023/03/07 01:05:31;;;;;;;10.65;8.90;;;3.50;99.90;;;;;;6058074;23;20204;-65
2023/03/07 01:07:58;;;;;;;10.95;9.32;;;3.50;99.90;;;;;;6047077;23;20220;-65
2023/03/07 01:10:28;;;;;;;11.57;9.25;;;3.50;99.90;;;;;;6046202;23;20268;-65
2023/03/07 01:12:54;;;;;;;11.13;9.63;;;3.50;99.90;;;;;;6050303;23;20247;-64
2023/03/07 01:15:23;;;;;;;10.10;9.00;;;3.50;99.90;;;;;;6055040;23;20193;-65
2023/03/07 01:17:49;;;;;;;10.80;9.45;;;3.50;99.90;;;;;;6050124;23;20725;-65
2023/03/07 01:20:17;;;;;;;11.52;9.93;;;3.40;99.90;;;;;;6050550;23;20255;-64
2023/03/07 01:22:46;;;;;;;10.00;8.88;;;3.50;99.90;;;;;;6057920;23;20224;-64
2023/03/07 01:25:13;;;;;;;12.38;9.48;;;3.50;99.90;;;;;;6059149;23;20689;-64
2023/03/07 01:27:39;;;;;;;11.85;9.27;;;3.40;99.90;;;;;;6044964;23;20543;-64
2023/03/07 01:30:08;;;;;;;10.85;8.57;;;3.50;99.90;;;;;;6056601;23;20644;-64
2023/03/07 01:32:35;;;;;;;11.23;9.48;;;3.50;99.90;;;;;;6054975;23;20639;-65
2023/03/07 01:35:02;;;;;;;12.13;8.75;;;3.50;99.90;;;;;;6050924;23;20503;-64
2023/03/07 01:37:29;;;;;;;12.25;9.13;;;3.50;99.90;;;;;;6054409;23;20323;-65
2023/03/07 01:39:57;;;;;;;10.77;8.77;;;3.50;99.90;;;;;;6046671;23;20196;-65
2023/03/07 01:42:24;;;;;;;10.88;9.55;;;3.50;99.90;;;;;;6051113;23;20755;-65
2023/03/07 01:45:06;;;;;;;11.50;8.93;;;3.50;99.90;;;;;;6057778;23;20239;-65
2023/03/07 01:47:33;;;;;;;10.43;9.23;;;3.50;99.90;;;;;;6042052;23;20248;-65
2023/03/07 01:50:04;;;;;;;11.48;8.70;;;3.50;99.90;;;;;;6052422;23;20982;-64
2023/03/07 01:52:34;;;;;;;10.30;8.85;;;3.50;99.90;;;;;;6046621;23;20201;-64
2023/03/07 01:55:07;;;;;;;11.82;8.88;;;3.50;99.90;;;;;;6048066;23;20216;-64
2023/03/07 01:57:37;;;;;;;10.50;8.32;;;3.40;99.90;;;;;;6050820;23;20189;-64
2023/03/07 02:00:09;;;;;;;11.60;9.55;;;3.50;99.90;;;;;;6050304;23;20845;-64
2023/03/07 02:02:39;;;;;;;10.30;8.60;;;3.50;99.90;;;;;;6053823;23;20199;-64
2023/03/07 02:05:11;;;;;;;10.60;9.20;;;3.50;99.90;;;;;;6051786;23;20718;-65
2023/03/07 02:07:43;;;;;;;11.88;8.60;;;3.50;99.90;;;;;;6057389;23;20271;-64
2023/03/07 02:10:13;;;;;;;8.77;7.88;;;3.50;99.90;;;;;;6054562;23;20193;-63
2023/03/07 02:12:41;;;;;;;10.43;8.27;;;3.50;99.90;;;;;;6051655;23;20720;-65
2023/03/07 02:15:09;;;;;;;10.70;9.27;;;3.50;99.90;;;;;;6057311;23;20217;-65
2023/03/07 02:17:37;;;;;;;11.00;9.05;;;3.50;99.90;;;;;;6056862;23;20193;-65
2023/03/07 02:20:22;;;;;;;10.57;8.35;;;3.50;99.90;;;;;;6057711;23;20246;-65
2023/03/07 02:22:50;;;;;;;10.70;8.68;;;3.50;99.90;;;;;;6058888;23;20193;-64
2023/03/07 02:25:23;;;;;;;9.90;8.77;;;3.60;99.90;;;;;;6055761;23;20262;-64
2023/03/07 02:27:55;;;;;;;9.43;8.43;;;3.50;99.90;;;;;;6054862;23;20208;-65
2023/03/07 02:30:22;;;;;;;10.68;8.80;;;3.50;99.90;;;;;;6049212;23;20720;-64
2023/03/07 02:32:49;;;;;;;10.07;8.68;;;3.50;99.90;;;;;;6045615;23;20190;-65
2023/03/07 02:35:20;;;;;;;11.32;8.95;;;3.50;99.90;;;;;;6052341;23;20656;-64
2023/03/07 02:37:49;;;;;;;12.80;9.23;;;3.50;99.90;;;;;;6046928;23;20194;-64
2023/03/07 02:40:19;;;;;;;11.40;9.32;;;3.50;99.90;;;;;;6053082;23;20197;-64
2023/03/07 02:42:47;;;;;;;9.70;8.57;;;3.50;99.90;;;;;;6054530;23;20203;-64
2023/03/07 02:45:18;;;;;;;12.57;9.75;;;3.50;99.90;;;;;;6055584;23;20216;-65
2023/03/07 02:47:46;;;;;;;10.20;8.70;;;3.50;99.90;;;;;;6048680;23;20757;-65
2023/03/07 02:50:13;;;;;;;10.55;9.43;;;3.50;99.90;;;;;;6045097;23;20189;-65
2023/03/07 02:52:41;;;;;;;10.95;9.32;;;3.50;99.90;;;;;;6049260;23;20231;-65
2023/03/07 02:55:09;;;;;;;10.38;8.80;;;3.40;99.90;;;;;;6047228;23;20772;-65
2023/03/07 02:57:36;;;;;;;10.60;8.77;;;3.40;99.90;;;;;;6057490;23;20196;-65
2023/03/07 03:00:05;;;;;;;10.00;8.75;;;3.40;99.90;;;;;;6047431;23;20285;-64
2023/03/07 03:02:34;;;;;;;9.35;7.85;;;3.50;99.90;;;;;;6044385;23;20194;-65
2023/03/07 03:05:01;;;;;;;9.55;8.55;;;3.40;99.90;;;;;;6051720;23;20209;-65
2023/03/07 03:07:28;;;;;;;9.38;8.27;;;3.40;99.90;;;;;;6055010;23;20645;-64
2023/03/07 03:09:55;;;;;;;10.10;8.88;;;3.40;99.90;;;;;;6053392;23;20200;-64
2023/03/07 03:12:22;;;;;;;11.43;9.07;;;3.50;99.90;;;;;;6048605;23;20271;-64
2023/03/07 03:14:49;;;;;;;11.18;9.32;;;3.50;99.90;;;;;;6047234;23;20305;-64
2023/03/07 03:17:17;;;;;;;10.32;8.52;;;3.50;99.90;;;;;;6058929;23;20275;-64
2023/03/07 03:19:45;;;;;;;9.65;8.55;;;3.40;99.90;;;;;;6051312;23;20608;-65
2023/03/07 03:22:12;;;;;;;10.55;9.18;;;3.50;99.90;;;;;;6050236;23;20221;-65
2023/03/07 03:24:41;;;;;;;11.93;9.60;;;3.50;99.90;;;;;;6048571;23;20214;-64
2023/03/07 03:27:09;;;;;;;9.52;8.27;;;3.50;99.90;;;;;;6059905;23;20184;-65
2023/03/07 03:29:36;;;;;;;12.38;9.75;;;3.50;99.90;;;;;;6039009;23;20224;-64
2023/03/07 03:32:03;;;;;;;10.40;9.38;;;3.50;99.90;;;;;;6056054;23;20536;-63
2023/03/07 03:34:30;;;;;;;11.05;9.32;;;3.50;99.90;;;;;;6051580;23;20220;-63
2023/03/07 03:36:58;;;;;;;10.20;9.07;;;3.50;99.90;;;;;;6053981;23;20193;-65
2023/03/07 03:39:25;;;;;;;12.35;10.20;;;3.50;99.90;;;;;;6043217;23;20197;-64
2023/03/07 03:41:53;;;;;;;9.45;7.85;;;3.50;99.90;;;;;;6047019;23;20193;-64
2023/03/07 03:44:20;;;;;;;12.07;10.43;;;3.50;99.90;;;;;;6050697;23;20220;-64
2023/03/07 03:46:48;;;;;;;9.90;8.50;;;3.50;99.90;;;;;;6054282;23;20188;-64
2023/03/07 03:49:15;;;;;;;13.45;9.20;;;3.50;99.90;;;;;;6048314;23;20310;-65
2023/03/07 03:51:42;;;;;;;10.40;8.85;;;3.50;99.90;;;;;;6053030;23;20192;-64
2023/03/07 03:54:10;;;;;;;10.70;9.60;;;3.50;99.90;;;;;;6054992;23;20596;-65
2023/03/07 03:56:37;;;;;;;10.18;8.63;;;3.50;99.90;;;;;;6056899;23;20200;-65
2023/03/07 03:59:04;;;;;;;12.82;9.75;;;3.50;99.90;;;;;;6053605;23;20240;-64
2023/03/07 04:01:32;;;;;;;10.35;9.05;;;3.50;99.90;;;;;;6048477;23;20197;-64
2023/03/07 04:03:59;;;;;;;10.25;9.15;;;3.60;99.90;;;;;;6052454;23;20543;-65
2023/03/07 04:06:28;;;;;;;10.55;8.98;;;3.60;99.90;;;;;;6054383;23;20553;-64
2023/03/07 04:08:56;;;;;;;11.35;9.13;;;3.60;99.90;;;;;;6049348;23;20250;-64
2023/03/07 04:11:25;;;;;;;11.82;9.45;;;3.60;99.90;;;;;;6050628;23;20275;-64
2023/03/07 04:13:52;;;;;;;10.65;9.25;;;3.60;99.90;;;;;;6049023;23;20270;-64
2023/03/07 04:16:21;;;;;;;12.10;10.10;;;3.60;99.90;;;;;;6053865;23;20213;-64
2023/03/07 04:18:49;;;;;;;10.43;8.70;;;3.50;99.90;;;;;;6054444;23;20279;-65
2023/03/07 04:21:16;;;;;;;10.43;9.32;;;3.50;99.90;;;;;;6056015;23;20511;-64
2023/03/07 04:23:43;;;;;;;11.20;9.98;;;3.50;99.90;;;;;;6054787;23;20292;-64
2023/03/07 04:26:11;;;;;;;10.27;9.10;;;3.50;99.90;;;;;;6056710;23;20284;-63
2023/03/07 04:28:43;;;;;;;11.43;9.60;;;3.50;99.90;;;;;;6046805;23;20314;-65
2023/03/07 04:31:11;;;;;;;11.85;10.15;;;3.50;99.90;;;;;;6048090;23;20729;-64
2023/03/07 04:33:38;;;;;;;11.93;10.25;;;3.40;99.90;;;;;;6058167;23;20236;-65
2023/03/07 04:36:05;;;;;;;11.18;9.55;;;3.40;99.90;;;;;;6051503;23;20207;-63
2023/03/07 04:38:34;;;;;;;10.85;9.55;;;3.40;99.90;;;;;;6051574;23;20675;-64
2023/03/07 04:41:01;;;;;;;10.52;9.43;;;3.40;99.90;;;;;;6053942;23;20251;-64
2023/03/07 04:43:28;;;;;;;11.98;9.35;;;3.50;99.90;;;;;;6056733;23;20296;-64
2023/03/07 04:45:57;;;;;;;11.98;10.57;;;3.50;99.90;;;;;;6042218;23;20220;-65
2023/03/07 04:48:24;;;;;;;12.90;9.90;;;3.50;99.90;;;;;;6046870;23;20284;-64
2023/03/07 04:50:51;;;;;;;11.10;9.40;;;3.50;99.90;;;;;;6048660;23;20284;-63
2023/03/07 04:53:19;;;;;;;10.70;9.38;;;3.50;99.90;;;;;;6053927;23;20341;-65
2023/03/07 04:55:46;;;;;;;11.27;9.45;;;3.50;99.90;;;;;;6043306;23;20268;-65
2023/03/07 04:58:14;;;;;;;12.15;9.70;;;3.60;99.90;;;;;;6058740;23;20660;-64
2023/03/07 05:00:42;;;;;;;10.07;9.07;;;3.60;99.90;;;;;;6048412;23;20243;-65
2023/03/07 05:03:11;;;;;;;10.20;9.20;;;3.70;99.90;;;;;;6051355;23;20335;-65
2023/03/07 05:05:39;;;;;;;9.05;7.93;;;3.70;99.90;;;;;;6057674;23;20216;-64
2023/03/07 05:08:06;;;;;;;9.38;8.30;;;3.80;99.90;;;;;;6055421;23;20193;-64
2023/03/07 05:10:34;;;;;;;9.70;8.40;;;3.80;99.90;;;;;;6049814;23;20209;-64
2023/03/07 05:13:02;;;;;;;10.70;9.60;;;3.90;99.90;;;;;;6049535;23;20283;-65
2023/03/07 05:15:29;;;;;;;10.00;8.77;;;3.90;99.90;;;;;;6046354;23;20327;-64
2023/03/07 05:17:56;;;;;;;9.93;8.93;;;3.90;99.90;;;;;;6053329;23;20275;-65
2023/03/07 05:20:24;;;;;;;10.55;9.38;;;4.00;99.90;;;;;;6049548;23;20195;-65
2023/03/07 05:22:52;;;;;;;8.90;7.60;;;4.00;99.90;;;;;;6048839;23;20606;-65
2023/03/07 05:25:19;;;;;;;11.02;8.50;;;4.20;99.90;;;;;;6049998;23;20611;-64
2023/03/07 05:27:46;;;;;;;9.05;8.10;;;4.10;99.90;;;;;;6047921;23;20216;-64
2023/03/07 05:30:13;;;;;;;9.68;8.25;;;4.10;99.90;;;;;;6042948;23;20225;-65
2023/03/07 05:32:41;;;;;;;10.13;8.20;;;4.10;99.90;;;;;;6058748;23;20199;-64
2023/03/07 05:35:09;;;;;;;8.98;8.07;;;4.20;99.90;;;;;;6055273;23;20188;-64
2023/03/07 05:37:38;;;;;;;9.70;8.55;;;4.10;99.90;;;;;;6045896;23;20194;-63
2023/03/07 05:40:09;;;;;;;10.05;7.63;;;4.20;99.90;;;;;;6045351;23;20185;-63
2023/03/07 05:42:37;;;;;;;9.48;7.80;;;4.20;99.90;;;;;;6040016;23;20213;-63
2023/03/07 05:45:05;;;;;;;10.65;8.23;;;4.20;99.90;;;;;;6038354;23;20195;-66
2023/03/07 05:47:32;;;;;;;9.60;8.13;;;4.30;99.90;;;;;;6047138;23;20255;-67
2023/03/07 05:49:59;;;;;;;11.55;8.70;;;4.40;99.90;;;;;;6048179;23;20212;-67
2023/03/07 05:52:27;;;;;;;10.93;9.43;;;4.40;99.90;;;;;;6054098;23;20956;-67
2023/03/07 05:54:55;;;;;;;11.02;9.43;;;4.30;99.90;;;;;;6055695;23;20190;-66
2023/03/07 05:57:23;;;;;;;11.05;9.68;;;4.30;99.90;;;;;;6052527;23;20216;-66
2023/03/07 05:59:50;;;;;;;11.32;9.98;;;4.20;99.90;;;;;;6051848;23;20200;-65
2023/03/07 06:02:17;;;;;;;11.27;9.43;;;4.10;99.90;;;;;;6050866;23;20231;-66
2023/03/07 06:04:45;;;;;;;11.05;9.73;;;4.00;99.90;;;;;;6048617;23;20232;-66
2023/03/07 06:07:12;;;;;;;13.02;10.07;;;4.00;99.90;;;;;;6057472;23;20203;-66
2023/03/07 06:09:39;;;;;;;11.02;9.40;;;3.90;99.90;;;;;;6050403;23;20239;-66
2023/03/07 06:12:09;;;;;;;11.65;10.45;;;3.80;99.90;;;;;;6046153;23;20188;-66
2023/03/07 06:14:36;;;;;;;12.30;9.43;;;3.80;99.90;;;;;;6058203;23;20201;-65
2023/03/07 06:17:04;;;;;;;12.40;9.40;;;3.80;99.90;;;;;;6053744;23;20208;-66
2023/03/07 06:19:32;;;;;;;12.60;10.18;;;3.80;99.90;;;;;;6048498;23;20569;-66
2023/03/07 06:21:59;;;;;;;11.13;9.93;;;3.80;99.90;;;;;;6047864;23;20264;-66
2023/03/07 06:24:26;;;;;;;12.82;9.80;;;3.80;99.90;;;;;;6047096;23;20283;-66
2023/03/07 06:26:53;;;;;;;13.27;10.07;;;3.90;99.90;;;;;;6055107;23;20181;-66
2023/03/07 06:29:22;;;;;;;11.77;9.48;;;3.90;99.90;;;;;;6054975;23;20212;-67
2023/03/07 06:31:49;;;;;;;10.75;8.88;;;3.80;99.90;;;;;;6028409;23;20299;-67
2023/03/07 06:34:17;;;;;;;10.90;8.20;;;3.80;99.90;;;;;;6054632;23;20290;-65
2023/03/07 06:36:44;;;;;;;11.45;9.32;;;3.80;99.90;;;;;;6043346;23;20630;-66
2023/03/07 06:39:11;;;;;;;10.30;9.10;;;3.80;99.90;;;;;;6038065;23;20185;-66
2023/03/07 06:41:38;;;;;;;12.88;9.20;;;3.80;99.90;;;;;;6042480;23;20185;-67
2023/03/07 06:44:05;;;;;;;10.43;9.20;;;3.70;99.90;;;;;;6042418;23;20204;-66
2023/03/07 06:46:34;;;;;;;11.65;9.02;;;3.70;99.90;;;;;;6043681;23;20268;-67
2023/03/07 06:49:02;;;;;;;12.15;9.13;;;3.70;99.90;;;;;;6046421;23;20587;-67
2023/03/07 06:51:29;;;;;;;12.15;9.30;;;3.80;99.90;;;;;;6049272;23;20441;-66
2023/03/07 06:53:56;;;;;;;14.25;10.13;;;3.80;99.90;;;;;;6047951;23;20624;-67
2023/03/07 06:56:23;;;;;;;9.98;8.38;;;3.80;99.90;;;;;;6047660;23;20180;-68
2023/03/07 06:58:50;;;;;;;10.65;9.25;;;3.80;99.90;;;;;;6051216;23;20661;-67
2023/03/07 07:01:18;;;;;;;11.13;9.00;;;3.90;99.90;;;;;;6044632;23;20316;-67
2023/03/07 07:03:47;;;;;;;13.15;8.65;;;3.90;99.90;;;;;;6047475;23;20207;-67
2023/03/07 07:06:14;;;;;;;14.80;10.00;;;3.90;99.90;;;;;;6052377;23;20184;-67
2023/03/07 07:08:41;;;;;;;9.98;8.80;;;4.00;99.90;;;;;;6040726;23;20205;-66
2023/03/07 07:11:08;;;;;;;10.35;8.40;;;4.00;99.90;;;;;;6046591;23;20178;-66
2023/03/07 07:13:35;;;;;;;11.75;9.50;;;4.00;99.90;;;;;;6038687;23;20601;-68
2023/03/07 07:16:06;;;;;;;11.02;9.48;;;4.00;99.90;;;;;;6045083;23;20195;-68
2023/03/07 07:18:34;;;;;;;9.73;8.40;;;4.10;99.90;;;;;;6038672;23;20196;-66
2023/03/07 07:21:02;;;;;;;10.15;8.32;;;4.00;99.90;;;;;;6038277;23;20186;-66
2023/03/07 07:23:30;;;;;;;10.70;9.00;;;4.10;99.90;;;;;;6037146;23;20681;-66
2023/03/07 07:25:57;;;;;;;12.30;9.23;;;4.10;99.90;;;;;;6036129;23;20197;-67
2023/03/07 07:28:24;;;;;;;9.85;8.55;;;4.20;99.90;;;;;;6037100;23;20227;-67
2023/03/07 07:30:51;;;;;;;10.63;9.52;;;4.30;99.90;;;;;;6034695;23;20829;-67
2023/03/07 07:33:18;;;;;;;11.60;8.45;;;4.30;99.90;;;;;;6034524;23;20615;-67
2023/03/07 07:35:46;;;;;;;10.50;9.27;;;4.40;99.90;;;;;;6040104;23;20217;-66
2023/03/07 07:38:14;;;;;;;10.90;9.13;;;4.50;99.90;;;;;;6037860;23;20304;-66
2023/03/07 07:40:41;;;;;;;9.57;8.25;;;4.60;99.90;;;;;;6038844;23;20691;-66
2023/03/07 07:43:14;;;;;;;11.18;9.52;;;4.60;99.90;;;;;;6039387;23;20598;-66
2023/03/07 07:45:41;;;;;;;10.15;8.82;;;4.60;99.90;;;;;;6039495;23;20177;-67
2023/03/07 07:48:09;;;;;;;9.52;8.52;;;4.70;99.90;;;;;;6040906;23;20637;-67
2023/03/07 07:50:36;;;;;;;10.13;8.73;;;4.70;99.90;;;;;;6047166;23;20214;-67
2023/03/07 07:53:03;;;;;;;12.88;9.93;;;4.70;99.90;;;;;;6047914;23;20236;-67
2023/03/07 07:55:31;;;;;;;11.18;8.32;;;4.70;99.90;;;;;;6050478;23;20562;-67
2023/03/07 07:57:58;;;;;;;10.82;8.85;;;4.70;99.90;;;;;;6043371;23;20713;-66
2023/03/07 08:00:26;;;;;;;10.32;8.55;;;4.80;99.90;;;;;;6040181;23;20225;-67
2023/03/07 08:02:53;;;;;;;9.95;8.45;;;4.80;99.90;;;;;;6045322;23;20206;-67
2023/03/07 08:05:21;;;;;;;11.23;8.70;;;4.90;99.90;;;;;;6039500;23;20181;-66
2023/03/07 08:07:49;;;;;;;10.73;8.40;;;4.90;99.90;;;;;;6040177;23;20181;-66
2023/03/07 08:10:18;;;;;;;9.35;8.40;;;5.00;99.90;;;;;;6049435;23;20216;-66
2023/03/07 08:12:50;;;;;;;9.52;8.05;;;4.90;99.90;;;;;;6036751;23;20209;-67
2023/03/07 08:15:18;;;;;;;10.43;8.90;;;5.00;99.90;;;;;;6037511;23;20629;-67
2023/03/07 08:17:45;;;;;;;8.75;7.68;;;5.00;99.90;;;;;;6043624;23;20186;-66
2023/03/07 08:20:12;;;;;;;9.98;7.85;;;5.10;99.90;;;;;;6043502;23;20259;-67
2023/03/07 08:22:40;;;;;;;8.98;7.95;;;5.10;99.90;;;;;;6046800;23;20201;-68
2023/03/07 08:25:10;;;;;;;10.07;7.70;;;5.10;99.90;;;;;;6048463;23;20229;-67
2023/03/07 08:27:37;;;;;;;9.45;7.70;;;5.10;99.90;;;;;;6037539;23;20307;-67
2023/03/07 08:30:06;;;;;;;11.00;8.95;;;5.20;99.90;;;;;;6037569;23;20219;-67
2023/03/07 08:32:33;;;;;;;9.13;8.23;;;5.30;99.90;;;;;;6032710;23;20208;-67
2023/03/07 08:35:00;;;;;;;10.77;8.05;;;5.50;99.90;;;;;;6033519;23;20243;-68
2023/03/07 08:37:27;;;;;;;8.77;7.90;;;5.50;99.90;;;;;;6038270;23;20212;-67
2023/03/07 08:39:54;;;;;;;9.98;8.93;;;5.60;99.90;;;;;;6032016;23;20197;-67
2023/03/07 08:42:21;;;;;;;8.68;7.80;;;5.60;99.90;;;;;;6044730;23;20541;-66
2023/03/07 08:44:49;;;;;;;10.57;8.50;;;5.60;99.90;;;;;;6034282;23;20188;-66
2023/03/07 08:47:17;;;;;;;10.02;7.70;;;5.60;99.90;;;;;;6039901;23;20760;-67
2023/03/07 08:49:44;;;;;;;9.45;7.40;;;5.70;99.90;;;;;;6036756;23;20747;-66
2023/03/07 08:52:11;;;;;;;9.73;7.85;;;5.80;99.90;;;;;;6044306;23;20184;-67
2023/03/07 08:54:38;;;;;;;9.13;7.38;;;6.00;99.90;;;;;;6038255;23;20201;-66
2023/03/07 08:57:05;;;;;;;9.90;8.00;;;6.30;99.90;;;;;;6043210;23;20595;-67
2023/03/07 08:59:32;;;;;;;9.57;8.60;;;6.20;99.90;;;;;;6048163;23;20291;-67
2023/03/07 09:01:59;;;;;;;9.10;8.15;;;6.40;99.90;;;;;;6039614;23;20218;-66
2023/03/07 09:04:28;;;;;;;13.45;7.65;;;6.40;99.90;;;;;;6036489;23;20202;-66
2023/03/07 09:06:55;;;;;;;8.15;7.30;;;6.50;99.90;;;;;;6045788;23;20180;-67
2023/03/07 09:09:22;;;;;;;9.55;8.23;;;6.60;99.90;;;;;;6037914;23;20195;-67
2023/03/07 09:11:50;;;;;;;9.35;8.45;;;6.70;99.90;;;;;;6045448;23;20535;-67
2023/03/07 09:14:17;;;;;;;8.02;7.22;;;6.70;99.90;;;;;;6038924;23;20205;-66
2023/03/07 09:16:44;;;;;;;9.48;8.57;;;6.70;99.90;;;;;;6052914;23;20189;-66
2023/03/07 09:19:11;;;;;;;8.85;7.95;;;6.60;99.90;;;;;;6042855;23;20181;-67
2023/03/07 09:21:39;;;;;;;9.05;7.38;;;6.60;99.90;;;;;;6042742;23;20235;-67
2023/03/07 09:24:07;;;;;;;7.80;6.50;;;6.70;99.90;;;;;;6055269;23;20209;-67
2023/03/07 09:26:34;;;;;;;7.47;6.88;;;6.90;99.90;;;;;;6056642;23;20205;-68
2023/03/07 09:29:01;;;;;;;7.35;6.65;;;7.10;99.90;;;;;;6061004;23;20190;-67
2023/03/07 09:31:28;;;;;;;9.07;7.05;;;7.30;99.90;;;;;;6043364;23;20298;-67
2023/03/07 09:33:56;;;;;;;6.80;5.75;;;7.50;99.90;;;;;;6039982;23;20204;-66
2023/03/07 09:36:24;;;;;;;8.23;6.30;;;7.50;99.90;;;;;;6036380;23;20188;-66
2023/03/07 09:38:52;;;;;;;6.55;5.90;;;7.60;99.90;;;;;;6043315;23;20183;-68
2023/03/07 09:41:51;;;;;;;6.45;5.85;;;7.60;99.90;;;;;;6040796;23;20181;-66
2023/03/07 09:44:31;;;;;;;6.90;6.20;;;7.30;99.90;;;;;;6040070;23;20203;-67
2023/03/07 09:47:11;;;;;;;7.65;6.05;;;7.00;99.90;;;;;;6045261;23;20195;-67
2023/03/07 09:49:44;;;;;;;6.72;6.10;;;6.90;99.90;;;;;;6043561;23;20180;-67
2023/03/07 09:52:14;;;;;;;7.78;6.25;;;6.70;99.90;;;;;;6059053;23;20209;-67
2023/03/07 09:54:46;;;;;;;6.57;5.97;;;6.60;99.90;;;;;;6051631;23;20232;-67
2023/03/07 09:57:16;;;;;;;6.68;6.00;;;6.50;99.90;;;;;;6058718;23;20264;-66
2023/03/07 09:59:47;;;;;;;6.75;6.05;;;6.40;99.90;;;;;;6062491;23;20332;-67
2023/03/07 10:02:18;;;;;;;7.15;6.10;;;6.30;99.90;;;;;;6042252;23;20280;-67
2023/03/07 10:04:52;;;;;;;7.70;6.22;;;6.20;99.90;;;;;;6053427;23;20189;-66
2023/03/07 10:07:23;;;;;;;5.93;5.35;;;6.20;99.90;;;;;;6049050;23;20185;-66
2023/03/07 10:09:56;;;;;;;7.25;6.53;;;6.00;99.90;;;;;;6040620;23;20201;-67
2023/03/07 10:12:38;;;;;;;7.18;5.82;;;6.00;99.90;;;;;;6043768;23;20217;-67
2023/03/07 10:15:16;;;;;;;6.28;5.43;;;5.90;99.90;;;;;;6048530;23;20208;-67
2023/03/07 10:18:08;;;;;;;7.32;6.63;;;5.90;99.90;;;;;;6050229;23;20194;-67
2023/03/07 10:20:43;;;;;;;6.38;5.63;;;5.80;99.90;;;;;;6045391;23;20185;-67
2023/03/07 10:23:27;;;;;;;6.75;6.05;;;5.70;99.90;;;;;;6048349;23;20212;-67
2023/03/07 10:26:01;;;;;;;5.88;5.28;;;5.70;99.90;;;;;;6048728;23;20267;-68
2023/03/07 10:28:31;;;;;;;7.47;5.90;;;5.70;99.90;;;;;;6052108;23;20544;-67
2023/03/07 10:31:02;;;;;;;7.13;4.95;;;5.70;99.90;;;;;;6047880;23;20259;-67
2023/03/07 10:33:30;;;;;;;5.57;5.05;;;5.70;99.90;;;;;;6049077;23;20259;-67
2023/03/07 10:36:02;;;;;;;7.30;6.45;;;5.70;99.90;;;;;;6040865;23;20273;-67
2023/03/07 10:38:35;;;;;;;5.43;4.75;;;5.70;99.90;;;;;;6047326;23;20704;-68
2023/03/07 10:41:10;;;;;;;5.50;5.00;;;5.70;99.90;;;;;;6040395;23;20647;-67
2023/03/07 10:43:39;;;;;;;5.32;4.82;;;5.80;99.90;;;;;;6034758;23;20310;-67
2023/03/07 10:46:13;;;;;;;7.38;5.30;;;5.80;99.90;;;;;;6040983;23;20185;-67
2023/03/07 10:48:43;;;;;;;5.20;4.70;;;5.90;99.90;;;;;;6033877;23;20185;-66
2023/03/07 10:51:24;;;;;;;6.90;5.35;;;5.90;99.90;;;;;;6034071;23;20239;-67
2023/03/07 10:53:52;;;;;;;6.05;5.45;;;5.90;99.90;;;;;;6036638;23;20250;-67
2023/03/07 10:56:21;;;;;;;6.25;5.57;;;5.80;99.90;;;;;;6044090;23;20193;-67
2023/03/07 10:59:02;;;;;;;7.18;5.60;;;5.70;99.90;;;;;;6046662;23;20197;-66
2023/03/07 11:01:30;;;;;;;6.15;5.63;;;5.60;99.90;;;;;;6043007;23;20180;-66
2023/03/07 11:04:00;;;;;;;6.80;5.88;;;5.50;99.90;;;;;;6045379;23;20231;-66
2023/03/07 11:06:33;;;;;;;5.70;5.10;;;5.50;99.90;;;;;;6050774;23;20247;-66
2023/03/07 11:09:16;;;;;;;6.43;5.75;;;5.40;99.90;;;;;;6050331;23;20653;-66
2023/03/07 11:11:51;;;;;;;5.82;5.22;;;5.40;99.90;;;;;;6057669;23;20300;-68
2023/03/07 11:14:20;;;;;;;6.78;6.13;;;5.40;99.90;;;;;;6037301;23;20200;-67
2023/03/07 11:16:55;;;;;;;6.30;5.70;;;5.50;99.90;;;;;;6046571;23;20181;-66
2023/03/07 11:19:33;;;;;;;6.90;5.85;;;5.50;99.90;;;;;;6044765;23;20182;-68
2023/03/07 11:22:02;;;;;;;6.60;5.90;;;5.50;99.90;;;;;;6061821;23;20227;-67
2023/03/07 11:24:33;;;;;;;6.45;5.82;;;5.50;99.90;;;;;;6049273;23;20230;-67
2023/03/07 11:27:01;;;;;;;7.30;5.97;;;5.50;99.90;;;;;;6063260;23;20195;-67
2023/03/07 11:29:28;;;;;;;6.60;5.60;;;5.60;99.90;;;;;;6053510;23;20196;-67
2023/03/07 11:32:03;;;;;;;6.40;5.72;;;5.60;99.90;;;;;;6053161;23;20276;-65
2023/03/07 11:34:40;;;;;;;6.38;5.68;;;5.60;99.90;;;;;;6047076;23;20247;-67
2023/03/07 11:37:22;;;;;;;6.90;5.80;;;5.60;99.90;;;;;;6048043;23;20188;-68
2023/03/07 11:40:01;;;;;;;6.70;5.97;;;5.60;99.90;;;;;;6039697;23;20184;-65
2023/03/07 11:42:33;;;;;;;5.97;5.22;;;5.60;99.90;;;;;;6049992;23;20232;-66
2023/03/07 11:45:08;;;;;;;7.05;5.97;;;5.60;99.90;;;;;;6049374;23;20198;-67
2023/03/07 11:47:48;;;;;;;6.50;5.80;;;5.50;99.90;;;;;;6060244;23;20255;-67
2023/03/07 11:50:22;;;;;;;6.10;5.50;;;5.50;99.90;;;;;;6045830;23;20579;-67
2023/03/07 11:53:28;;;;;;;5.93;5.20;;;5.50;99.90;;;;;;6049602;23;20598;-67
2023/03/07 11:56:14;;;;;;;6.97;5.43;;;5.50;99.90;;;;;;6039922;23;20204;-67
2023/03/07 11:58:59;;;;;;;7.32;6.13;;;5.50;99.90;;;;;;6055762;23;20192;-66
2023/03/07 12:01:35;;;;;;;6.57;5.85;;;5.50;99.90;;;;;;6048036;23;20185;-67
2023/03/07 12:04:44;;;;;;;6.65;5.72;;;5.60;99.90;;;;;;6055803;23;20317;-67
2023/03/07 12:07:27;;;;;;;6.72;5.50;;;5.70;99.90;;;;;;6056473;23;20187;-66
2023/03/07 12:10:02;;;;;;;7.85;5.78;;;5.70;99.90;;;;;;6056453;23;20188;-67
2023/03/07 12:12:43;;;;;;;6.20;5.60;;;5.80;99.90;;;;;;6054340;23;20211;-66
2023/03/07 12:15:27;;;;;;;9.13;6.03;;;5.90;99.90;;;;;;6057500;23;20216;-67
2023/03/07 12:18:05;;;;;;;7.60;5.50;;;5.90;99.90;;;;;;6049594;23;20189;-67
2023/03/07 12:20:39;;;;;;;6.03;5.43;;;6.00;99.90;;;;;;6052187;23;20644;-67
2023/03/07 12:23:14;;;;;;;5.30;4.63;;;6.10;99.70;;;;;;6041554;23;20813;-66
2023/03/07 12:25:44;;;;;;;5.82;5.22;;;6.00;99.20;;;;;;6048965;23;20188;-67
2023/03/07 12:28:17;;;;;;;5.70;5.05;;;6.00;99.70;;;;;;6054977;23;20188;-66
2023/03/07 12:30:57;;;;;;;6.40;4.90;;;6.00;99.50;;;;;;6058524;23;20295;-66
2023/03/07 12:33:32;;;;;;;5.40;4.72;;;6.00;99.50;;;;;;6041529;23;20737;-67
2023/03/07 12:36:04;;;;;;;6.60;4.82;;;6.00;99.20;;;;;;6057667;23;20666;-67
2023/03/07 12:38:37;;;;;;;6.47;5.00;;;6.10;99.20;;;;;;6038436;23;21601;-66
2023/03/07 12:41:19;;;;;;;6.03;5.03;;;6.00;99.10;;;;;;6042480;23;20349;-67
2023/03/07 12:43:50;;;;;;;5.78;5.20;;;6.10;99.20;;;;;;6055507;23;20272;-67
2023/03/07 12:46:27;;;;;;;5.65;4.85;;;6.00;99.20;;;;;;6043657;23;20192;-67
2023/03/07 12:48:58;;;;;;;5.90;5.28;;;6.10;99.10;;;;;;6055471;23;20663;-68
2023/03/07 12:51:31;;;;;;;5.85;5.25;;;6.10;99.10;;;;;;6045036;23;20303;-67
2023/03/07 12:54:06;;;;;;;6.55;5.43;;;6.30;99.00;;;;;;6044557;23;20314;-66
2023/03/07 12:56:47;;;;;;;6.57;5.75;;;6.40;98.80;;;;;;6044599;23;20194;-66
2023/03/07 12:59:15;;;;;;;5.78;5.18;;;6.50;98.70;;;;;;6037177;23;20270;-66
2023/03/07 13:01:48;;;;;;;7.70;5.95;;;6.50;98.60;;;;;;6040120;23;20189;-66
2023/03/07 13:04:18;;;;;;;7.13;5.40;;;6.50;98.80;;;;;;6038887;23;20197;-67